createdAt,value
2019-04-22T00:01:55.296Z,74.60
2019-04-22T00:04:33.699Z,74.60
2019-04-22T00:07:08.699Z,74.70
2019-04-22T00:09:45.757Z,75.30
2019-04-22T00:12:16.738Z,75.40
2019-04-22T00:14:35.154Z,75.10
2019-04-22T00:17:33.520Z,75.20
2019-04-22T00:19:43.590Z,74.80
2019-04-22T00:22:07.759Z,75.30
2019-04-22T00:24:39.112Z,75.30
2019-04-22T00:27:03.897Z,75.60
2019-04-22T00:29:50.143Z,75.40
2019-04-22T00:32:11.389Z,75.60
2019-04-22T00:35:00.556Z,75.30
2019-04-22T00:37:37.871Z,75.30
2019-04-22T00:39:57.431Z,75.40
2019-04-22T00:45:03.268Z,76.20
2019-04-22T00:47:30.572Z,76.10
2019-04-22T00:52:25.168Z,75.80
2019-04-22T00:55:01.887Z,76.40
2019-04-22T00:57:21.511Z,76.40
2019-04-22T00:59:52.249Z,76.70
2019-04-22T01:02:24.555Z,76.40
2019-04-22T01:05:00.729Z,76.50
2019-04-22T01:07:17.591Z,76.60
2019-04-22T01:09:51.990Z,76.80
2019-04-22T01:12:25.031Z,77.10
2019-04-22T01:14:42.937Z,77.70
2019-04-22T01:17:12.065Z,77.80
2019-04-22T01:19:52.997Z,77.60
2019-04-22T01:22:13.680Z,78.60
2019-04-22T01:24:40.257Z,78.30
2019-04-22T01:27:07.956Z,78.50
2019-04-22T01:29:34.944Z,78.40
2019-04-22T01:31:51.353Z,78.40
2019-04-22T01:34:33.436Z,78.30
2019-04-22T01:37:03.485Z,78.60
2019-04-22T01:39:43.587Z,78.70
2019-04-22T01:42:29.879Z,78.70
2019-04-22T01:44:40.533Z,78.60
2019-04-22T01:47:10.115Z,78.60
2019-04-22T01:49:40.410Z,78.70
2019-04-22T01:52:07.776Z,79.00
2019-04-22T01:54:45.481Z,79.10
2019-04-22T01:57:03.314Z,79.30
2019-04-22T01:59:30.186Z,78.80
2019-04-22T02:02:02.956Z,78.70
2019-04-22T02:04:38.179Z,78.60
2019-04-22T02:07:03.211Z,78.00
2019-04-22T02:14:35.721Z,78.30
2019-04-22T02:17:01.938Z,77.80
2019-04-22T02:19:31.177Z,78.40
2019-04-22T02:21:55.659Z,78.70
2019-04-22T02:24:33.476Z,78.50
2019-04-22T02:26:56.771Z,78.70
2019-04-22T02:29:32.610Z,78.30
2019-04-22T02:31:59.530Z,78.10
2019-04-22T02:39:20.071Z,78.70
2019-04-22T02:41:51.901Z,78.50
2019-04-22T02:51:36.996Z,79.30
2019-04-22T02:54:36.460Z,79.80
2019-04-22T03:01:44.844Z,79.80
2019-04-22T03:04:14.702Z,80.20
2019-04-22T03:06:41.837Z,80.30
2019-04-22T03:14:04.735Z,81.00
2019-04-22T03:21:31.331Z,81.00
2019-04-22T03:24:23.674Z,81.30
2019-04-22T03:26:31.745Z,81.30
2019-04-22T03:28:58.703Z,81.30
2019-04-22T03:35:15.946Z,81.50
2019-04-22T03:37:17.599Z,81.30
2019-04-22T03:39:37.774Z,81.50
2019-04-22T03:46:52.545Z,81.20
2019-04-22T03:49:28.247Z,81.20
2019-04-22T03:54:19.289Z,81.50
2019-04-22T03:59:19.943Z,81.70
2019-04-22T04:01:44.166Z,81.30
2019-04-22T04:06:54.619Z,81.50
2019-04-22T04:09:09.531Z,81.50
2019-04-22T04:11:43.215Z,81.80
2019-04-22T04:14:11.938Z,81.80
2019-04-22T04:26:48.176Z,82.50
2019-04-22T04:29:19.498Z,82.70
2019-04-22T04:33:54.421Z,82.30
2019-04-22T04:38:53.882Z,82.20
2019-04-22T04:41:30.860Z,82.30
2019-04-22T04:43:57.907Z,82.60
2019-04-22T04:46:33.191Z,82.70
2019-04-22T04:48:58.525Z,82.40
2019-04-22T04:51:23.941Z,82.10
2019-04-22T04:53:41.774Z,82.30
2019-04-22T04:56:21.042Z,81.90
2019-04-22T05:01:20.969Z,81.80
2019-04-22T05:03:49.748Z,81.80
2019-04-22T05:06:09.480Z,82.00
2019-04-22T05:08:54.702Z,82.00
2019-04-22T05:13:41.157Z,81.80
2019-04-22T05:16:17.353Z,81.60
2019-04-22T05:18:29.662Z,82.20
2019-04-22T05:25:53.726Z,82.80
2019-04-22T05:28:15.194Z,82.90
2019-04-22T05:30:45.794Z,82.80
2019-04-22T05:33:14.339Z,83.00
2019-04-22T05:35:46.359Z,82.70
2019-04-22T05:38:17.458Z,82.20
2019-04-22T05:40:34.874Z,82.90
2019-04-22T05:43:29.143Z,83.00
2019-04-22T05:45:39.935Z,82.90
2019-04-22T05:48:15.002Z,82.90
2019-04-22T05:50:37.304Z,83.20
2019-04-22T05:53:19.899Z,83.30
2019-04-22T05:55:45.241Z,83.30
2019-04-22T06:03:03.500Z,83.30
2019-04-22T06:05:35.780Z,84.00
2019-04-22T06:08:03.655Z,84.10
2019-04-22T06:10:45.355Z,83.90
2019-04-22T06:13:06.558Z,83.30
2019-04-22T06:15:33.911Z,83.40
2019-04-22T06:20:51.804Z,83.40
2019-04-22T06:23:18.601Z,83.60
2019-04-22T06:30:41.408Z,83.60
2019-04-22T06:33:13.213Z,83.60
2019-04-22T06:35:43.895Z,83.20
2019-04-22T06:40:31.698Z,83.00
2019-04-22T06:43:06.108Z,82.70
2019-04-22T06:48:19.519Z,82.50
2019-04-22T06:50:40.179Z,82.20
2019-04-22T06:55:35.630Z,81.70
2019-04-22T06:57:59.793Z,82.50
2019-04-22T07:00:38.103Z,82.10
2019-04-22T07:05:33.945Z,82.00
2019-04-22T07:08:13.670Z,81.80
2019-04-22T07:10:35.010Z,81.70
2019-04-22T07:12:54.327Z,81.60
2019-04-22T07:15:47.125Z,82.80
2019-04-22T07:18:04.289Z,83.10
2019-04-22T07:20:30.411Z,82.90
2019-04-22T07:23:01.943Z,83.60
2019-04-22T07:25:36.322Z,83.20
2019-04-22T07:28:01.408Z,83.50
2019-04-22T07:30:35.599Z,82.00
2019-04-22T07:35:36.517Z,81.70
2019-04-22T07:38:04.623Z,81.10
2019-04-22T07:40:37.369Z,80.50
2019-04-22T07:43:04.281Z,80.70
2019-04-22T07:48:11.247Z,79.90
2019-04-22T07:50:44.479Z,79.60
2019-04-22T07:52:55.917Z,78.80
2019-04-22T07:55:29.397Z,77.50
2019-04-22T07:57:58.291Z,77.50
2019-04-22T08:00:37.296Z,78.20
2019-04-22T08:05:47.709Z,77.80
2019-04-22T08:08:09.544Z,77.50
2019-04-22T08:13:09.270Z,77.60
2019-04-22T08:15:41.507Z,77.60
2019-04-22T08:18:07.010Z,77.50
2019-04-22T08:20:39.209Z,77.30
2019-04-22T08:25:34.875Z,75.50
2019-04-22T08:28:03.333Z,74.10
2019-04-22T08:33:04.458Z,74.70
2019-04-22T08:38:03.774Z,74.00
2019-04-22T08:40:38.803Z,74.30
2019-04-22T08:43:13.971Z,73.20
2019-04-22T08:45:40.141Z,72.60
2019-04-22T08:48:01.620Z,72.00
2019-04-22T08:50:42.508Z,72.80
2019-04-22T08:53:10.903Z,72.90
2019-04-22T08:55:41.346Z,72.60
2019-04-22T09:00:39.760Z,72.50
2019-04-22T09:03:04.749Z,73.10
2019-04-22T09:06:02.833Z,72.40
2019-04-22T09:08:07.429Z,72.90
2019-04-22T09:10:37.737Z,73.30
2019-04-22T09:13:13.901Z,72.80
2019-04-22T09:15:34.333Z,73.90
2019-04-22T09:18:02.428Z,74.50
2019-04-22T09:20:32.656Z,73.30
2019-04-22T09:25:34.666Z,72.40
2019-04-22T09:28:01.928Z,72.40
2019-04-22T09:30:43.293Z,72.20
2019-04-22T09:33:06.035Z,71.40
2019-04-22T09:38:12.039Z,71.20
2019-04-22T09:40:34.520Z,71.00
2019-04-22T09:43:04.689Z,70.60
2019-04-22T09:45:29.148Z,69.70
2019-04-22T09:50:36.831Z,70.90
2019-04-22T09:53:02.102Z,69.30
2019-04-22T09:55:29.862Z,68.70
2019-04-22T09:58:03.219Z,70.00
2019-04-22T10:00:37.645Z,69.90
2019-04-22T10:03:11.563Z,69.30
2019-04-22T10:05:32.611Z,68.50
2019-04-22T10:08:14.892Z,69.50
2019-04-22T10:10:39.445Z,69.20
2019-04-22T10:13:03.193Z,69.00
2019-04-22T10:15:36.215Z,68.50
2019-04-22T10:18:02.722Z,69.50
2019-04-22T10:20:31.410Z,68.80
2019-04-22T10:22:57.415Z,69.50
2019-04-22T10:25:32.849Z,67.60
2019-04-22T10:30:41.743Z,65.60
2019-04-22T10:32:59.187Z,65.80
2019-04-22T10:35:15.444Z,65.80
2019-04-22T10:37:40.396Z,65.60
2019-04-22T10:40:13.611Z,67.10
2019-04-22T10:42:41.363Z,66.10
2019-04-22T10:45:12.245Z,67.20
2019-04-22T10:47:40.384Z,67.20
2019-04-22T10:50:10.304Z,66.10
2019-04-22T10:52:37.267Z,65.60
2019-04-22T10:55:07.849Z,65.50
2019-04-22T10:57:35.969Z,65.80
2019-04-22T11:00:06.995Z,65.20
2019-04-22T11:02:35.105Z,65.80
2019-04-22T11:05:06.132Z,66.20
2019-04-22T11:07:40.391Z,65.30
2019-04-22T11:10:22.812Z,64.70
2019-04-22T11:12:35.529Z,64.40
2019-04-22T11:15:01.118Z,63.60
2019-04-22T11:17:29.300Z,63.50
2019-04-22T11:19:57.464Z,61.70
2019-04-22T11:22:30.018Z,61.60
2019-04-22T11:24:57.368Z,61.40
2019-04-22T11:27:23.293Z,61.20
2019-04-22T11:29:50.392Z,62.00
2019-04-22T11:32:18.274Z,60.10
2019-04-22T11:34:47.002Z,61.80
2019-04-22T11:37:14.644Z,59.90
2019-04-22T11:39:42.612Z,59.60
2019-04-22T11:42:10.058Z,59.90
2019-04-22T11:44:37.286Z,59.10
2019-04-22T11:47:05.346Z,59.30
2019-04-22T11:49:32.258Z,60.00
2019-04-22T11:52:00.994Z,57.70
2019-04-22T11:54:28.623Z,60.20
2019-04-22T11:56:56.828Z,58.90
2019-04-22T11:59:24.900Z,59.70
2019-04-22T12:01:52.947Z,58.90
2019-04-22T12:04:20.231Z,57.10
2019-04-22T12:06:47.262Z,58.70
2019-04-22T12:09:17.368Z,57.50
2019-04-22T12:11:44.925Z,57.80
2019-04-22T12:14:11.977Z,56.60
2019-04-22T12:16:39.396Z,57.40
2019-04-22T12:19:07.124Z,56.40
2019-04-22T12:21:35.198Z,55.70
2019-04-22T12:24:03.424Z,55.20
2019-04-22T12:26:30.816Z,55.40
2019-04-22T12:28:57.616Z,56.50
2019-04-22T12:31:24.430Z,56.60
2019-04-22T12:33:51.301Z,55.30
2019-04-22T12:36:18.329Z,56.40
2019-04-22T12:38:45.493Z,55.20
2019-04-22T12:41:13.995Z,55.40
2019-04-22T12:43:41.086Z,54.90
2019-04-22T12:46:10.136Z,53.40
2019-04-22T12:48:37.356Z,54.60
2019-04-22T12:51:05.014Z,54.80
2019-04-22T12:53:32.097Z,53.30
2019-04-22T12:55:59.453Z,53.60
2019-04-22T12:58:27.762Z,54.00
2019-04-22T13:00:54.669Z,53.40
2019-04-22T13:03:22.278Z,53.50
2019-04-22T13:05:49.553Z,53.70
2019-04-22T13:08:18.051Z,53.00
2019-04-22T13:10:53.309Z,52.40
2019-04-22T13:13:15.322Z,54.00
2019-04-22T13:15:42.456Z,52.50
2019-04-22T13:18:19.069Z,52.00
2019-04-22T13:20:38.647Z,52.00
2019-04-22T13:23:07.577Z,51.20
2019-04-22T13:25:34.887Z,50.20
2019-04-22T13:28:03.018Z,50.40
2019-04-22T13:30:30.602Z,50.30
2019-04-22T13:32:58.740Z,49.40
2019-04-22T13:35:26.735Z,49.30
2019-04-22T13:37:55.082Z,50.60
2019-04-22T13:40:23.328Z,51.60
2019-04-22T13:42:51.195Z,48.50
2019-04-22T13:45:19.857Z,48.50
2019-04-22T13:48:02.972Z,48.40
2019-04-22T13:50:50.028Z,48.80
2019-04-22T13:53:31.889Z,46.80
2019-04-22T13:57:58.361Z,47.20
2019-04-22T14:00:26.899Z,44.80
2019-04-22T14:03:10.608Z,45.60
2019-04-22T14:05:40.587Z,45.00
2019-04-22T14:08:08.718Z,44.20
2019-04-22T14:10:36.431Z,45.10
2019-04-22T14:13:04.034Z,43.20
2019-04-22T14:15:31.961Z,43.30
2019-04-22T14:18:00.895Z,42.40
2019-04-22T14:20:30.572Z,41.80
2019-04-22T14:22:58.675Z,40.20
2019-04-22T14:25:26.027Z,40.70
2019-04-22T14:28:01.501Z,40.20
2019-04-22T14:30:22.369Z,41.80
2019-04-22T14:32:49.295Z,41.10
2019-04-22T14:35:16.880Z,42.00
2019-04-22T14:37:43.754Z,41.60
2019-04-22T14:40:13.610Z,42.00
2019-04-22T14:43:03.569Z,41.20
2019-04-22T14:45:42.595Z,40.90
2019-04-22T14:48:07.155Z,41.30
2019-04-22T14:50:29.304Z,41.50
2019-04-22T14:52:58.331Z,40.70
2019-04-22T14:55:16.953Z,39.90
2019-04-22T14:57:38.348Z,40.90
2019-04-22T15:00:11.516Z,42.50
2019-04-22T15:02:39.519Z,43.20
2019-04-22T15:05:08.166Z,43.70
2019-04-22T15:07:35.125Z,42.80
2019-04-22T15:10:08.238Z,43.20
2019-04-22T15:12:43.694Z,44.00
2019-04-22T15:15:27.228Z,45.50
2019-04-22T15:18:00.973Z,47.40
2019-04-22T15:20:49.217Z,47.50
2019-04-22T15:23:15.016Z,49.30
2019-04-22T15:25:42.040Z,50.50
2019-04-22T15:28:09.198Z,51.80
2019-04-22T15:30:37.395Z,52.50
2019-04-22T15:33:05.510Z,52.90
2019-04-22T15:35:33.551Z,53.90
2019-04-22T15:38:01.503Z,53.50
2019-04-22T15:40:29.064Z,53.40
2019-04-22T15:42:56.962Z,54.80
2019-04-22T15:45:25.745Z,55.00
2019-04-22T15:47:53.227Z,55.80
2019-04-22T15:50:20.027Z,56.20
2019-04-22T15:52:51.529Z,56.80
2019-04-22T15:55:16.485Z,57.80
2019-04-22T15:57:43.954Z,57.60
2019-04-22T16:00:27.607Z,58.90
2019-04-22T16:02:41.418Z,58.70
2019-04-22T16:05:09.006Z,59.40
2019-04-22T16:07:36.117Z,60.10
2019-04-22T16:10:08.021Z,60.80
2019-04-22T16:12:44.118Z,61.30
2019-04-22T16:15:09.544Z,61.50
2019-04-22T16:17:37.070Z,62.00
2019-04-22T16:20:06.852Z,62.80
2019-04-22T16:22:52.045Z,62.30
2019-04-22T16:25:20.624Z,62.10
2019-04-22T16:27:48.196Z,63.10
2019-04-22T16:30:17.159Z,63.60
2019-04-22T16:32:45.333Z,62.70
2019-04-22T16:35:13.005Z,62.70
2019-04-22T16:37:41.003Z,62.00
2019-04-22T16:40:09.327Z,62.40
2019-04-22T16:42:45.417Z,63.00
2019-04-22T16:45:07.571Z,62.40
2019-04-22T16:47:35.583Z,61.70
2019-04-22T16:50:05.788Z,61.80
2019-04-22T16:52:34.183Z,61.10
2019-04-22T16:55:01.306Z,60.80
2019-04-22T16:57:28.158Z,61.20
2019-04-22T16:59:55.191Z,61.90
2019-04-22T17:02:30.729Z,60.60
2019-04-22T17:05:05.535Z,61.30
2019-04-22T17:07:32.395Z,62.00
2019-04-22T17:09:59.816Z,62.70
2019-04-22T17:12:38.473Z,63.10
2019-04-22T17:15:00.715Z,63.00
2019-04-22T17:17:24.607Z,63.80
2019-04-22T17:19:51.476Z,64.90
2019-04-22T17:22:19.747Z,65.60
2019-04-22T17:24:47.926Z,65.20
2019-04-22T17:27:15.071Z,64.10
2019-04-22T17:29:41.879Z,64.30
2019-04-22T17:32:13.271Z,63.00
2019-04-22T17:34:37.505Z,62.30
2019-04-22T17:37:11.238Z,62.10
2019-04-22T17:39:45.320Z,62.70
2019-04-22T17:42:25.386Z,62.80
2019-04-22T17:44:57.108Z,63.30
2019-04-22T17:47:23.600Z,63.10
2019-04-22T17:50:00.193Z,63.30
2019-04-22T17:52:32.874Z,63.40
2019-04-22T17:54:51.668Z,63.20
2019-04-22T17:57:31.735Z,63.20
2019-04-22T17:59:54.777Z,61.80
2019-04-22T18:02:23.887Z,62.40
2019-04-22T18:04:38.744Z,62.10
2019-04-22T18:07:31.250Z,62.40
2019-04-22T18:12:25.290Z,62.70
2019-04-22T18:14:52.914Z,62.30
2019-04-22T18:17:17.345Z,62.10
2019-04-22T18:19:46.272Z,62.20
2019-04-22T18:22:10.109Z,62.90
2019-04-22T18:24:32.524Z,63.20
2019-04-22T18:27:19.801Z,62.30
2019-04-22T18:29:39.739Z,63.00
2019-04-22T18:31:58.176Z,61.60
2019-04-22T18:34:34.259Z,63.10
2019-04-22T18:37:03.977Z,62.80
2019-04-22T18:39:42.342Z,63.10
2019-04-22T18:42:03.399Z,63.70
2019-04-22T18:44:36.499Z,64.30
2019-04-22T18:47:03.701Z,64.00
2019-04-22T18:49:33.648Z,63.30
2019-04-22T18:52:04.513Z,62.90
2019-04-22T18:54:51.918Z,62.80
2019-04-22T18:57:15.699Z,62.80
2019-04-22T18:59:34.099Z,63.40
2019-04-22T19:02:01.429Z,63.10
2019-04-22T19:04:37.700Z,63.60
2019-04-22T19:07:17.199Z,63.70
2019-04-22T19:09:48.432Z,64.00
2019-04-22T19:12:22.810Z,64.00
2019-04-22T19:17:21.453Z,64.20
2019-04-22T19:19:43.623Z,64.30
2019-04-22T19:22:03.980Z,64.60
2019-04-22T19:24:37.169Z,64.80
2019-04-22T19:27:02.958Z,64.80
2019-04-22T19:29:41.747Z,64.60
2019-04-22T19:32:01.826Z,65.50
2019-04-22T19:34:32.001Z,66.20
2019-04-22T19:37:03.518Z,66.80
2019-04-22T19:39:27.580Z,67.10
2019-04-22T19:42:08.430Z,67.40
2019-04-22T19:44:34.255Z,67.90
2019-04-22T19:47:14.515Z,69.00
2019-04-22T19:49:34.473Z,69.30
2019-04-22T19:52:05.562Z,69.90
2019-04-22T19:54:23.225Z,69.50
2019-04-22T19:56:48.611Z,69.20
2019-04-22T19:59:14.877Z,69.90
2019-04-22T20:02:04.600Z,70.80
2019-04-22T20:04:47.738Z,71.30
2019-04-22T20:07:08.462Z,71.90
2019-04-22T20:09:43.747Z,72.00
2019-04-22T20:12:04.360Z,71.80
2019-04-22T20:14:35.773Z,71.40
2019-04-22T20:17:00.639Z,72.40
2019-04-22T20:19:41.571Z,73.10
2019-04-22T20:22:02.888Z,73.00
2019-04-22T20:24:18.134Z,73.20
2019-04-22T20:27:02.867Z,74.20
2019-04-22T20:29:40.069Z,74.20
2019-04-22T20:31:59.287Z,74.10
2019-04-22T20:34:32.086Z,73.40
2019-04-22T20:37:03.714Z,72.90
2019-04-22T20:39:36.006Z,73.30
2019-04-22T20:42:03.110Z,73.10
2019-04-22T20:44:29.464Z,73.20
2019-04-22T20:46:53.165Z,73.10
2019-04-22T20:49:27.727Z,73.10
2019-04-22T20:52:01.386Z,73.10
2019-04-22T20:54:19.315Z,73.00
2019-04-22T20:56:47.765Z,73.50
2019-04-22T20:59:21.856Z,73.90
2019-04-22T21:01:46.917Z,73.80
2019-04-22T21:04:01.872Z,73.90
2019-04-22T21:06:42.790Z,74.30
2019-04-22T21:09:18.363Z,74.50
2019-04-22T21:11:40.304Z,74.50
2019-04-22T21:14:11.577Z,74.60
2019-04-22T21:16:43.090Z,75.00
2019-04-22T21:19:20.021Z,75.40
2019-04-22T21:21:46.684Z,76.00
2019-04-22T21:23:59.448Z,75.60
2019-04-22T21:26:36.026Z,76.20
2019-04-22T21:29:03.696Z,76.70
2019-04-22T21:31:52.127Z,78.00
2019-04-22T21:34:04.169Z,77.60
2019-04-22T21:36:38.077Z,78.20
2019-04-22T21:39:00.511Z,77.70
2019-04-22T21:41:29.292Z,77.10
2019-04-22T21:43:59.527Z,77.50
2019-04-22T21:46:28.801Z,77.30
2019-04-22T21:49:00.146Z,77.00
2019-04-22T21:51:32.747Z,77.10
2019-04-22T21:54:00.401Z,77.60
2019-04-22T21:56:35.339Z,77.30
2019-04-22T21:59:00.118Z,77.80
2019-04-22T22:01:38.100Z,77.80
2019-04-22T22:04:00.233Z,78.00
2019-04-22T22:06:20.076Z,78.90
2019-04-22T22:08:59.440Z,79.40
2019-04-22T22:11:24.565Z,80.30
2019-04-22T22:13:51.499Z,81.00
2019-04-22T22:16:18.798Z,81.00
2019-04-22T22:18:57.330Z,81.70
2019-04-22T22:23:49.383Z,83.50
2019-04-22T22:26:12.364Z,83.60
2019-04-22T22:29:05.254Z,83.50
2019-04-22T22:31:22.256Z,84.20
2019-04-22T22:33:41.857Z,84.40
2019-04-22T22:36:08.739Z,84.40
2019-04-22T22:38:35.195Z,84.30
2019-04-22T22:40:50.080Z,81.80
2019-04-22T22:43:26.802Z,80.40
2019-04-22T22:45:58.760Z,79.50
2019-04-22T22:48:41.378Z,80.30
2019-04-22T22:51:05.380Z,80.80
2019-04-22T22:53:38.669Z,81.50
2019-04-22T22:56:06.290Z,81.30
2019-04-22T22:58:37.547Z,81.00
2019-04-22T23:00:53.544Z,81.20
2019-04-22T23:05:57.450Z,84.10
2019-04-22T23:08:49.209Z,83.80
2019-04-22T23:11:00.351Z,85.20
2019-04-22T23:13:25.827Z,86.00
2019-04-22T23:15:44.313Z,86.20
2019-04-22T23:18:01.701Z,87.10
2019-04-22T23:20:34.359Z,89.20
2019-04-22T23:23:34.660Z,88.10
2019-04-22T23:25:54.699Z,87.90
2019-04-22T23:28:14.615Z,89.10
2019-04-22T23:30:56.998Z,88.60
2019-04-22T23:33:40.543Z,88.70
2019-04-22T23:36:10.753Z,88.70
2019-04-22T23:38:54.927Z,89.80
2019-04-22T23:41:38.876Z,90.80
2019-04-22T23:44:12.819Z,92.90
2019-04-22T23:46:29.042Z,93.10
2019-04-22T23:49:04.419Z,92.90
2019-04-22T23:51:32.758Z,93.10
2019-04-22T23:54:09.082Z,93.70
2019-04-22T23:56:29.492Z,93.70
